createdAt,value
2023-01-13T00:00:31.868Z,2.40
2023-01-13T00:02:59.880Z,2.49
2023-01-13T00:05:28.463Z,2.47
2023-01-13T00:07:56.386Z,2.33
2023-01-13T00:10:24.365Z,2.43
2023-01-13T00:12:53.614Z,2.51
2023-01-13T00:15:21.598Z,2.40
2023-01-13T00:17:50.964Z,2.50
2023-01-13T00:20:19.156Z,2.45
2023-01-13T00:22:47.054Z,2.46
2023-01-13T00:25:15.136Z,2.42
2023-01-13T00:27:42.925Z,2.42
2023-01-13T00:30:11.826Z,2.37
2023-01-13T00:32:39.819Z,2.71
2023-01-13T00:35:09.999Z,2.37
2023-01-13T00:37:38.953Z,2.58
2023-01-13T00:40:07.853Z,2.71
2023-01-13T00:42:52.991Z,2.61
2023-01-13T00:45:20.955Z,2.76
2023-01-13T00:47:48.825Z,2.84
2023-01-13T00:50:18.547Z,2.74
2023-01-13T00:52:46.470Z,2.45
2023-01-13T00:55:14.283Z,2.59
2023-01-13T00:57:42.238Z,2.73
2023-01-13T01:00:11.798Z,2.76
2023-01-13T01:02:39.615Z,2.47
2023-01-13T01:05:08.469Z,2.61
2023-01-13T01:07:37.823Z,2.52
2023-01-13T01:10:06.475Z,2.40
2023-01-13T01:12:36.004Z,2.44
2023-01-13T01:15:06.172Z,2.41
2023-01-13T01:17:34.076Z,2.65
2023-01-13T01:20:02.017Z,2.47
2023-01-13T01:22:30.031Z,2.21
2023-01-13T01:24:59.861Z,2.06
2023-01-13T01:27:27.805Z,1.72
2023-01-13T01:29:55.634Z,1.55
2023-01-13T01:32:23.540Z,1.52
2023-01-13T01:34:51.913Z,1.57
2023-01-13T01:37:19.706Z,1.42
2023-01-13T01:39:47.579Z,1.21
2023-01-13T01:42:36.246Z,1.36
2023-01-13T01:45:15.085Z,1.09
2023-01-13T01:47:44.115Z,0.99
2023-01-13T01:50:12.944Z,1.09
2023-01-13T01:52:44.284Z,1.05
2023-01-13T01:55:17.382Z,1.02
2023-01-13T01:57:51.443Z,1.02
2023-01-13T02:00:19.735Z,0.66
2023-01-13T02:02:50.823Z,0.48
2023-01-13T02:05:19.770Z,0.64
2023-01-13T02:07:50.216Z,0.65
2023-01-13T02:10:19.656Z,0.91
2023-01-13T02:12:49.430Z,0.91
2023-01-13T02:15:19.716Z,1.29
2023-01-13T02:18:03.953Z,1.17
2023-01-13T02:21:15.406Z,1.10
2023-01-13T02:24:59.014Z,1.35
2023-01-13T02:27:52.110Z,1.39
2023-01-13T02:30:57.684Z,1.56
2023-01-13T02:33:40.523Z,1.62
2023-01-13T02:36:16.880Z,1.37
2023-01-13T02:38:52.017Z,1.44
2023-01-13T02:41:57.727Z,1.09
2023-01-13T02:44:29.860Z,0.73
2023-01-13T02:47:05.099Z,0.75
2023-01-13T02:49:37.717Z,0.69
2023-01-13T02:52:11.637Z,0.62
2023-01-13T02:54:43.426Z,0.55
2023-01-13T02:57:13.340Z,0.24
2023-01-13T02:59:42.579Z,0.20
2023-01-13T03:02:17.427Z,0.34
2023-01-13T03:04:52.100Z,0.41
2023-01-13T03:07:47.066Z,0.31
2023-01-13T03:10:26.588Z,0.32
2023-01-13T03:13:03.283Z,0.11
2023-01-13T03:15:41.570Z,0.20
2023-01-13T03:18:20.697Z,0.44
2023-01-13T03:20:58.320Z,0.39
2023-01-13T03:23:32.675Z,0.21
2023-01-13T03:26:06.025Z,0.23
2023-01-13T03:28:38.077Z,0.39
2023-01-13T03:31:10.618Z,0.57
2023-01-13T03:33:46.286Z,0.45
2023-01-13T03:36:18.275Z,0.59
2023-01-13T03:38:51.806Z,0.51
2023-01-13T03:41:24.539Z,0.45
2023-01-13T03:44:15.991Z,0.43
2023-01-13T03:46:50.937Z,0.50
2023-01-13T03:49:23.346Z,0.64
2023-01-13T03:51:57.176Z,0.73
2023-01-13T03:54:29.019Z,0.75
2023-01-13T03:57:00.420Z,0.52
2023-01-13T03:59:34.393Z,0.40
2023-01-13T04:02:06.548Z,0.44
2023-01-13T04:04:41.986Z,0.41
2023-01-13T04:07:16.938Z,0.66
2023-01-13T04:09:51.209Z,0.67
2023-01-13T04:12:26.079Z,0.41
2023-01-13T04:14:55.295Z,0.60
2023-01-13T04:17:24.687Z,0.59
2023-01-13T04:19:53.804Z,0.62
2023-01-13T04:22:21.855Z,0.47
2023-01-13T04:24:49.627Z,0.22
2023-01-13T04:27:17.385Z,0.50
2023-01-13T04:29:45.367Z,0.15
2023-01-13T04:32:13.118Z,0.18
2023-01-13T04:34:40.886Z,0.37
2023-01-13T04:37:10.146Z,0.32
2023-01-13T04:39:38.294Z,0.36
2023-01-13T04:42:06.129Z,0.17
2023-01-13T04:44:35.531Z,0.05
2023-01-13T04:47:03.629Z,-0.02
2023-01-13T04:49:31.681Z,0.18
2023-01-13T04:51:59.736Z,0.23
2023-01-13T04:54:28.801Z,0.41
2023-01-13T04:56:56.541Z,0.42
2023-01-13T04:59:24.589Z,0.45
2023-01-13T05:01:52.474Z,0.47
2023-01-13T05:04:20.319Z,0.49
2023-01-13T05:06:48.477Z,0.28
2023-01-13T05:09:16.357Z,0.36
2023-01-13T05:12:05.053Z,0.34
2023-01-13T05:14:50.573Z,0.35
2023-01-13T05:17:21.665Z,0.33
2023-01-13T05:19:49.368Z,0.30
2023-01-13T05:22:34.812Z,0.28
2023-01-13T05:25:20.002Z,0.36
2023-01-13T05:27:49.479Z,0.59
2023-01-13T05:30:18.259Z,0.53
2023-01-13T05:32:46.185Z,0.73
2023-01-13T05:35:16.085Z,0.81
2023-01-13T05:37:44.302Z,0.87
2023-01-13T05:40:31.426Z,0.87
2023-01-13T05:43:21.186Z,0.88
2023-01-13T05:45:50.751Z,0.85
2023-01-13T05:48:20.523Z,0.84
2023-01-13T05:50:49.254Z,0.67
2023-01-13T05:53:18.391Z,0.90
2023-01-13T05:55:46.878Z,0.88
2023-01-13T05:58:17.340Z,0.95
2023-01-13T06:00:44.993Z,0.85
2023-01-13T06:03:13.547Z,0.95
2023-01-13T06:05:41.444Z,0.94
2023-01-13T06:08:10.306Z,1.00
2023-01-13T06:10:38.450Z,1.06
2023-01-13T06:13:06.437Z,1.02
2023-01-13T06:15:35.981Z,0.91
2023-01-13T06:18:04.651Z,0.98
2023-01-13T06:20:32.770Z,1.05
2023-01-13T06:23:01.542Z,0.97
2023-01-13T06:25:40.849Z,1.04
2023-01-13T06:28:08.731Z,1.08
2023-01-13T06:30:40.946Z,1.00
2023-01-13T06:33:13.185Z,1.14
2023-01-13T06:35:44.850Z,1.07
2023-01-13T06:38:17.079Z,1.15
2023-01-13T06:40:45.264Z,1.08
2023-01-13T06:43:17.976Z,1.23
2023-01-13T06:45:50.592Z,1.22
2023-01-13T06:48:20.014Z,1.25
2023-01-13T06:50:47.892Z,1.27
2023-01-13T06:53:15.706Z,1.37
2023-01-13T06:55:43.699Z,1.21
2023-01-13T06:58:11.573Z,1.30
2023-01-13T07:00:39.679Z,1.38
2023-01-13T07:03:14.613Z,1.51
2023-01-13T07:05:44.129Z,1.45
2023-01-13T07:08:12.048Z,1.47
2023-01-13T07:10:40.239Z,1.49
2023-01-13T07:13:25.358Z,1.54
2023-01-13T07:15:58.053Z,1.45
2023-01-13T07:18:28.522Z,1.59
2023-01-13T07:20:58.005Z,1.65
2023-01-13T07:23:26.769Z,1.70
2023-01-13T07:25:56.698Z,1.72
2023-01-13T07:28:25.122Z,1.66
2023-01-13T07:30:53.169Z,1.79
2023-01-13T07:33:21.427Z,1.81
2023-01-13T07:35:57.823Z,1.86
2023-01-13T07:38:25.791Z,1.90
2023-01-13T07:40:53.686Z,1.94
2023-01-13T07:43:33.225Z,1.97
2023-01-13T07:46:02.945Z,1.97
2023-01-13T07:48:31.896Z,2.02
2023-01-13T07:51:04.345Z,2.06
2023-01-13T07:53:32.499Z,2.10
2023-01-13T07:56:01.250Z,2.11
2023-01-13T07:58:29.947Z,2.11
2023-01-13T08:00:58.543Z,2.17
2023-01-13T08:03:28.019Z,2.12
2023-01-13T08:05:55.804Z,2.24
2023-01-13T08:08:25.023Z,2.18
2023-01-13T08:10:52.760Z,2.19
2023-01-13T08:13:21.565Z,2.19
2023-01-13T08:15:51.116Z,2.22
2023-01-13T08:18:22.111Z,2.26
2023-01-13T08:20:52.337Z,2.24
2023-01-13T08:23:20.676Z,2.27
2023-01-13T08:25:50.477Z,2.31
2023-01-13T08:28:18.739Z,2.34
2023-01-13T08:30:46.661Z,2.36
2023-01-13T08:33:14.570Z,2.32
2023-01-13T08:35:43.115Z,2.22
2023-01-13T08:38:11.136Z,2.46
2023-01-13T08:40:40.757Z,2.45
2023-01-13T08:43:09.883Z,2.48
2023-01-13T08:45:37.724Z,2.46
2023-01-13T08:48:06.422Z,2.45
2023-01-13T08:50:34.172Z,2.53
2023-01-13T08:53:02.175Z,2.38
2023-01-13T08:55:30.024Z,2.48
2023-01-13T08:58:14.280Z,2.47
2023-01-13T09:00:45.338Z,2.44
2023-01-13T09:03:13.049Z,2.59
2023-01-13T09:05:40.769Z,2.53
2023-01-13T09:08:08.883Z,2.52
2023-01-13T09:10:37.020Z,2.60
2023-01-13T09:13:12.850Z,2.63
2023-01-13T09:15:42.553Z,2.58
2023-01-13T09:18:11.953Z,2.60
2023-01-13T09:20:40.480Z,2.44
2023-01-13T09:23:10.749Z,2.48
2023-01-13T09:25:39.475Z,2.58
2023-01-13T09:28:08.796Z,2.60
2023-01-13T09:30:38.223Z,2.53
2023-01-13T09:33:23.403Z,2.65
2023-01-13T09:35:52.653Z,2.67
2023-01-13T09:38:20.511Z,2.74
2023-01-13T09:40:50.204Z,2.65
2023-01-13T09:43:41.437Z,2.71
2023-01-13T09:46:31.160Z,2.68
2023-01-13T09:49:00.099Z,2.74
2023-01-13T09:51:35.336Z,2.71
2023-01-13T09:54:09.997Z,2.66
2023-01-13T09:56:38.025Z,2.67
2023-01-13T09:59:06.150Z,2.67
2023-01-13T10:01:40.156Z,2.65
2023-01-13T10:04:12.689Z,2.72
2023-01-13T10:06:44.620Z,2.61
2023-01-13T10:09:16.221Z,2.73
2023-01-13T10:12:04.944Z,2.81
2023-01-13T10:14:38.863Z,2.79
2023-01-13T10:17:13.517Z,2.85
2023-01-13T10:19:46.246Z,2.75
2023-01-13T10:22:27.085Z,2.94
2023-01-13T10:25:20.297Z,2.79
2023-01-13T10:27:50.276Z,2.89
2023-01-13T10:30:31.351Z,2.97
2023-01-13T10:33:01.969Z,2.98
2023-01-13T10:35:47.937Z,3.02
2023-01-13T10:38:20.568Z,3.00
2023-01-13T10:40:50.393Z,3.02
2023-01-13T10:43:18.248Z,3.17
2023-01-13T10:45:57.036Z,3.12
2023-01-13T10:48:32.411Z,3.12
2023-01-13T10:51:00.331Z,3.28
2023-01-13T10:53:31.055Z,3.33
2023-01-13T10:56:03.969Z,3.33
2023-01-13T10:58:31.791Z,3.40
2023-01-13T11:01:01.901Z,3.44
2023-01-13T11:03:40.729Z,3.46
2023-01-13T11:06:09.566Z,3.36
2023-01-13T11:08:46.329Z,3.34
2023-01-13T11:11:34.303Z,3.48
2023-01-13T11:14:23.701Z,3.47
2023-01-13T11:16:56.719Z,3.55
2023-01-13T11:19:27.862Z,3.64
2023-01-13T11:22:02.015Z,3.79
2023-01-13T11:24:37.319Z,3.81
2023-01-13T11:27:11.298Z,3.82
2023-01-13T11:29:44.529Z,3.81
2023-01-13T11:32:15.005Z,3.91
2023-01-13T11:34:43.144Z,3.95
2023-01-13T11:37:18.528Z,4.05
2023-01-13T11:39:55.568Z,4.10
2023-01-13T11:42:27.676Z,4.35
2023-01-13T11:45:04.406Z,4.26
2023-01-13T11:47:33.627Z,4.32
2023-01-13T11:50:02.554Z,4.38
2023-01-13T11:52:48.576Z,4.30
2023-01-13T11:55:33.428Z,4.50
2023-01-13T11:58:45.636Z,4.52
2023-01-13T12:01:25.582Z,4.54
2023-01-13T12:04:06.930Z,4.40
2023-01-13T12:06:38.428Z,4.43
2023-01-13T12:09:25.092Z,4.48
2023-01-13T12:12:22.910Z,4.52
2023-01-13T12:15:23.614Z,4.36
2023-01-13T12:17:58.856Z,4.41
2023-01-13T12:20:35.788Z,4.47
2023-01-13T12:23:08.608Z,4.37
2023-01-13T12:25:41.648Z,4.47
2023-01-13T12:28:16.232Z,4.19
2023-01-13T12:30:50.855Z,4.30
2023-01-13T12:33:29.310Z,4.74
2023-01-13T12:36:02.641Z,4.81
2023-01-13T12:38:37.425Z,4.35
2023-01-13T12:41:16.850Z,4.40
2023-01-13T12:44:07.391Z,4.66
2023-01-13T12:46:36.391Z,4.69
2023-01-13T12:49:08.323Z,4.55
2023-01-13T12:51:38.306Z,4.25
2023-01-13T12:54:54.820Z,4.22
2023-01-13T12:57:25.380Z,4.35
2023-01-13T13:00:24.660Z,4.28
2023-01-13T13:03:20.942Z,4.20
2023-01-13T13:05:58.787Z,4.30
2023-01-13T13:08:43.277Z,4.12
2023-01-13T13:12:03.382Z,4.11
2023-01-13T13:15:07.035Z,4.04
2023-01-13T13:17:44.406Z,3.75
2023-01-13T13:20:53.967Z,3.49
2023-01-13T13:23:30.617Z,3.39
2023-01-13T13:26:04.927Z,3.49
2023-01-13T13:28:38.327Z,3.25
2023-01-13T13:31:37.440Z,3.03
2023-01-13T13:34:21.595Z,3.02
2023-01-13T13:37:08.761Z,2.89
2023-01-13T13:39:51.390Z,3.07
2023-01-13T13:42:52.242Z,3.04
2023-01-13T13:45:40.122Z,2.83
2023-01-13T13:48:25.053Z,2.91
2023-01-13T13:50:58.125Z,2.67
2023-01-13T13:53:29.876Z,2.80
2023-01-13T13:55:59.801Z,2.73
2023-01-13T13:58:29.829Z,2.81
2023-01-13T14:01:02.156Z,2.98
2023-01-13T14:03:33.562Z,3.13
2023-01-13T14:06:04.365Z,3.17
2023-01-13T14:08:35.570Z,3.39
2023-01-13T14:11:03.347Z,3.41
2023-01-13T14:13:32.788Z,3.39
2023-01-13T14:16:02.574Z,3.32
2023-01-13T14:18:33.429Z,3.29
2023-01-13T14:21:14.998Z,3.29
2023-01-13T14:23:52.388Z,3.24
2023-01-13T14:26:25.832Z,3.35
2023-01-13T14:28:54.383Z,3.31
2023-01-13T14:31:23.695Z,3.32
2023-01-13T14:33:53.590Z,3.40
2023-01-13T14:36:24.712Z,3.32
2023-01-13T14:39:27.561Z,3.32
2023-01-13T14:41:55.503Z,3.31
2023-01-13T14:44:27.409Z,3.16
2023-01-13T14:46:57.421Z,3.13
2023-01-13T14:49:30.131Z,3.20
2023-01-13T14:52:08.249Z,3.32
2023-01-13T14:54:43.842Z,3.26
2023-01-13T14:57:17.080Z,3.25
2023-01-13T14:59:51.649Z,3.24
2023-01-13T15:02:47.903Z,3.43
2023-01-13T15:05:31.855Z,3.46
2023-01-13T15:08:04.990Z,3.33
2023-01-13T15:10:38.094Z,3.35
2023-01-13T15:13:08.252Z,3.47
2023-01-13T15:15:37.505Z,3.44
2023-01-13T15:18:13.941Z,3.20
2023-01-13T15:20:43.025Z,3.36
2023-01-13T15:23:12.673Z,3.17
2023-01-13T15:25:42.855Z,3.14
2023-01-13T15:28:17.359Z,3.02
2023-01-13T15:30:45.604Z,2.91
2023-01-13T15:33:15.396Z,3.16
2023-01-13T15:35:45.827Z,3.25
2023-01-13T15:38:16.950Z,3.26
2023-01-13T15:40:44.735Z,3.15
2023-01-13T15:43:32.870Z,3.27
2023-01-13T15:46:33.340Z,3.21
2023-01-13T15:49:10.095Z,3.39
2023-01-13T15:51:38.883Z,3.27
2023-01-13T15:54:08.286Z,3.43
2023-01-13T15:56:37.833Z,3.55
2023-01-13T15:59:06.341Z,3.49
2023-01-13T16:01:34.258Z,3.61
2023-01-13T16:04:02.170Z,3.52
2023-01-13T16:06:33.226Z,3.48
2023-01-13T16:09:02.938Z,3.62
2023-01-13T16:11:33.190Z,3.64
2023-01-13T16:14:01.033Z,3.63
2023-01-13T16:16:29.932Z,3.62
2023-01-13T16:19:03.922Z,3.68
2023-01-13T16:21:31.757Z,3.67
2023-01-13T16:23:59.518Z,3.69
2023-01-13T16:26:30.236Z,3.76
2023-01-13T16:28:59.879Z,3.82
2023-01-13T16:31:32.021Z,3.66
2023-01-13T16:34:01.146Z,3.73
2023-01-13T16:36:30.544Z,3.63
2023-01-13T16:38:58.392Z,3.61
2023-01-13T16:41:26.398Z,3.69
2023-01-13T16:43:54.399Z,3.65
2023-01-13T16:46:26.055Z,3.75
2023-01-13T16:48:54.895Z,3.68
2023-01-13T16:51:24.036Z,3.65
2023-01-13T16:53:52.302Z,3.68
2023-01-13T16:56:26.167Z,3.67
2023-01-13T16:58:55.633Z,3.67
2023-01-13T17:01:27.443Z,3.69
2023-01-13T17:03:56.582Z,3.77
2023-01-13T17:06:28.333Z,3.77
2023-01-13T17:09:00.844Z,3.75
2023-01-13T17:11:28.610Z,3.74
2023-01-13T17:13:56.384Z,3.79
2023-01-13T17:16:26.372Z,3.75
2023-01-13T17:18:54.848Z,3.53
2023-01-13T17:21:22.650Z,3.70
2023-01-13T17:23:50.665Z,3.82
2023-01-13T17:26:37.193Z,3.73
2023-01-13T17:29:06.896Z,3.73
2023-01-13T17:31:36.826Z,3.73
2023-01-13T17:34:05.673Z,3.81
2023-01-13T17:36:33.821Z,3.70
2023-01-13T17:39:01.715Z,3.71
2023-01-13T17:41:29.616Z,3.74
2023-01-13T17:43:57.654Z,3.67
2023-01-13T17:46:25.549Z,3.79
2023-01-13T17:48:54.700Z,3.93
2023-01-13T17:51:25.219Z,3.95
2023-01-13T17:53:54.255Z,3.93
2023-01-13T17:56:22.142Z,3.73
2023-01-13T17:58:50.072Z,3.70
2023-01-13T18:01:19.718Z,3.70
2023-01-13T18:03:47.643Z,3.66
2023-01-13T18:06:19.275Z,3.57
2023-01-13T18:08:48.321Z,3.58
2023-01-13T18:11:18.756Z,3.45
2023-01-13T18:13:46.978Z,3.46
2023-01-13T18:16:17.648Z,3.48
2023-01-13T18:18:48.191Z,3.63
2023-01-13T18:21:37.548Z,3.50
2023-01-13T18:24:24.345Z,3.40
2023-01-13T18:27:09.432Z,3.34
2023-01-13T18:29:37.295Z,3.28
2023-01-13T18:32:07.676Z,3.16
2023-01-13T18:34:35.754Z,3.30
2023-01-13T18:37:06.228Z,3.30
2023-01-13T18:39:34.675Z,3.30
2023-01-13T18:42:19.975Z,3.46
2023-01-13T18:44:47.873Z,3.43
2023-01-13T18:47:15.575Z,3.56
2023-01-13T18:49:43.406Z,3.61
2023-01-13T18:52:13.876Z,3.49
2023-01-13T18:54:41.459Z,3.57
2023-01-13T18:57:10.434Z,3.47
2023-01-13T18:59:38.235Z,3.70
2023-01-13T19:02:09.484Z,3.67
2023-01-13T19:04:37.378Z,3.74
2023-01-13T19:07:06.452Z,3.73
2023-01-13T19:09:35.551Z,3.76
2023-01-13T19:12:06.226Z,3.74
2023-01-13T19:14:38.350Z,3.68
2023-01-13T19:17:09.452Z,3.72
2023-01-13T19:19:40.929Z,3.63
2023-01-13T19:22:09.319Z,3.76
2023-01-13T19:24:41.918Z,3.80
2023-01-13T19:27:09.831Z,3.83
2023-01-13T19:29:37.838Z,3.75
2023-01-13T19:32:15.761Z,3.83
2023-01-13T19:34:46.775Z,3.77
2023-01-13T19:37:14.940Z,3.76
2023-01-13T19:39:44.244Z,3.80
2023-01-13T19:42:29.555Z,3.75
2023-01-13T19:45:14.811Z,3.85
2023-01-13T19:47:43.986Z,3.86
2023-01-13T19:50:12.684Z,3.78
2023-01-13T19:52:41.240Z,3.86
2023-01-13T19:55:11.825Z,3.88
2023-01-13T19:57:40.071Z,3.77
2023-01-13T20:00:10.802Z,3.85
2023-01-13T20:02:38.909Z,3.84
2023-01-13T20:05:08.134Z,4.00
2023-01-13T20:07:36.217Z,4.00
2023-01-13T20:10:04.835Z,4.05
2023-01-13T20:12:34.105Z,3.92
2023-01-13T20:15:01.971Z,4.02
2023-01-13T20:17:30.779Z,3.91
2023-01-13T20:19:58.987Z,4.00
2023-01-13T20:22:26.966Z,4.02
2023-01-13T20:24:55.942Z,4.00
2023-01-13T20:27:24.823Z,3.95
2023-01-13T20:29:54.206Z,4.04
2023-01-13T20:32:22.168Z,3.93
2023-01-13T20:34:49.993Z,3.93
2023-01-13T20:37:17.813Z,4.03
2023-01-13T20:39:45.994Z,4.05
2023-01-13T20:42:40.009Z,4.09
2023-01-13T20:45:10.506Z,4.12
2023-01-13T20:47:38.297Z,4.08
2023-01-13T20:50:08.130Z,4.04
2023-01-13T20:52:36.919Z,4.11
2023-01-13T20:55:05.790Z,4.07
2023-01-13T20:57:33.641Z,3.96
2023-01-13T21:00:02.284Z,4.06
2023-01-13T21:02:31.730Z,3.96
2023-01-13T21:04:59.709Z,4.01
2023-01-13T21:07:28.271Z,4.05
2023-01-13T21:09:57.373Z,3.97
2023-01-13T21:12:42.533Z,4.06
2023-01-13T21:15:19.963Z,4.06
2023-01-13T21:18:08.943Z,4.00
2023-01-13T21:20:39.240Z,3.93
2023-01-13T21:23:07.724Z,4.02
2023-01-13T21:25:37.298Z,4.06
2023-01-13T21:28:07.732Z,4.08
2023-01-13T21:30:36.622Z,4.09
2023-01-13T21:33:06.479Z,4.06
2023-01-13T21:35:38.071Z,4.01
2023-01-13T21:38:05.830Z,4.01
2023-01-13T21:40:33.816Z,4.07
2023-01-13T21:43:19.242Z,4.07
2023-01-13T21:46:05.635Z,3.87
2023-01-13T21:48:34.922Z,3.91
2023-01-13T21:51:02.706Z,3.99
2023-01-13T21:53:30.600Z,4.09
2023-01-13T21:55:58.543Z,4.04
2023-01-13T21:58:26.284Z,4.05
2023-01-13T22:00:54.316Z,4.11
2023-01-13T22:03:22.288Z,3.97
2023-01-13T22:05:56.817Z,4.04
2023-01-13T22:08:35.692Z,4.13
2023-01-13T22:11:03.675Z,4.07
2023-01-13T22:13:48.928Z,4.17
2023-01-13T22:16:16.987Z,4.18
2023-01-13T22:18:44.861Z,4.13
2023-01-13T22:21:13.970Z,4.13
2023-01-13T22:23:41.962Z,4.08
2023-01-13T22:26:10.023Z,4.12
2023-01-13T22:28:42.955Z,4.12
2023-01-13T22:31:12.140Z,4.15
2023-01-13T22:33:40.835Z,4.15
2023-01-13T22:36:09.850Z,3.95
2023-01-13T22:38:39.099Z,4.00
2023-01-13T22:41:09.118Z,3.95
2023-01-13T22:43:38.014Z,4.08
2023-01-13T22:46:07.361Z,4.02
2023-01-13T22:48:35.250Z,4.08
2023-01-13T22:51:06.270Z,4.02
2023-01-13T22:53:34.381Z,3.93
2023-01-13T22:56:03.950Z,4.06
2023-01-13T22:58:32.082Z,4.11
2023-01-13T23:01:08.959Z,4.11
2023-01-13T23:03:36.915Z,4.07
2023-01-13T23:06:05.286Z,3.88
2023-01-13T23:08:34.221Z,4.01
2023-01-13T23:11:05.036Z,4.00
2023-01-13T23:13:33.289Z,3.95
2023-01-13T23:16:03.381Z,3.76
2023-01-13T23:18:31.405Z,4.00
2023-01-13T23:21:03.966Z,4.01
2023-01-13T23:23:32.199Z,3.94
2023-01-13T23:25:59.925Z,3.79
2023-01-13T23:28:29.234Z,4.00
2023-01-13T23:30:57.146Z,3.95
2023-01-13T23:33:24.899Z,3.97
2023-01-13T23:36:00.044Z,4.02
2023-01-13T23:38:28.968Z,4.06
2023-01-13T23:40:57.143Z,3.96
2023-01-13T23:43:27.056Z,3.95
2023-01-13T23:46:02.401Z,3.89
2023-01-13T23:48:30.892Z,4.00
2023-01-13T23:50:59.426Z,3.95
2023-01-13T23:53:33.454Z,3.95
2023-01-13T23:56:02.241Z,3.96
2023-01-13T23:58:30.906Z,4.03
